sensor_id;sensor_type;location;lat;lon;timestamp;pressure;altitude;pressure_sealevel;temperature;humidity
1776;BME280;885;42.626;23.200;2022-09-09T00:00:19;169671.34;;;16.56;100.00
1776;BME280;885;42.626;23.200;2022-09-09T00:02:53;169685.16;;;16.61;100.00
1776;BME280;885;42.626;23.200;2022-09-09T00:05:28;169696.28;;;16.65;100.00
1776;BME280;885;42.626;23.200;2022-09-09T00:07:59;169705.97;;;16.68;100.00
1776;BME280;885;42.626;23.200;2022-09-09T00:10:32;169701.84;;;16.67;100.00
1776;BME280;885;42.626;23.200;2022-09-09T00:13:06;169686.56;;;16.61;100.00
1776;BME280;885;42.626;23.200;2022-09-09T00:15:47;169685.16;;;16.61;100.00
1776;BME280;885;42.626;23.200;2022-09-09T00:18:25;169676.88;;;16.58;100.00
1776;BME280;885;42.626;23.200;2022-09-09T00:20:58;169649.13;;;16.48;100.00
1776;BME280;885;42.626;23.200;2022-09-09T00:23:29;169640.81;;;16.45;100.00
1776;BME280;885;42.626;23.200;2022-09-09T00:26:04;169635.25;;;16.43;100.00
1776;BME280;885;42.626;23.200;2022-09-09T00:28:36;169602.03;;;16.31;100.00
1776;BME280;885;42.626;23.200;2022-09-09T00:31:11;169563.28;;;16.17;100.00
1776;BME280;885;42.626;23.200;2022-09-09T00:33:39;169535.53;;;16.07;100.00
1776;BME280;885;42.626;23.200;2022-09-09T00:36:12;169528.66;;;16.04;100.00
1776;BME280;885;42.626;23.200;2022-09-09T00:38:43;169521.72;;;16.02;100.00
1776;BME280;885;42.626;23.200;2022-09-09T00:41:18;169513.38;;;15.99;100.00
1776;BME280;885;42.626;23.200;2022-09-09T00:43:55;169548.00;;;16.11;100.00
1776;BME280;885;42.626;23.200;2022-09-09T00:49:39;169568.81;;;16.19;100.00
1776;BME280;885;42.626;23.200;2022-09-09T00:52:20;169554.94;;;16.14;100.00
1776;BME280;885;42.626;23.200;2022-09-09T00:54:55;169550.78;;;16.12;100.00
1776;BME280;885;42.626;23.200;2022-09-09T00:57:29;169585.41;;;16.25;100.00
1776;BME280;885;42.626;23.200;2022-09-09T01:00:01;169566.00;;;16.18;100.00
1776;BME280;885;42.626;23.200;2022-09-09T01:02:35;169579.88;;;16.23;100.00
1776;BME280;885;42.626;23.200;2022-09-09T01:05:22;169597.91;;;16.29;100.00
1776;BME280;885;42.626;23.200;2022-09-09T01:07:53;169575.69;;;16.21;100.00
1776;BME280;885;42.626;23.200;2022-09-09T01:10:27;169559.06;;;16.15;100.00
1776;BME280;885;42.626;23.200;2022-09-09T01:13:01;169530.00;;;16.05;100.00
1776;BME280;885;42.626;23.200;2022-09-09T01:15:32;169560.47;;;16.16;100.00
1776;BME280;885;42.626;23.200;2022-09-09T01:18:03;169599.22;;;16.30;100.00
1776;BME280;885;42.626;23.200;2022-09-09T01:20:38;169577.09;;;16.22;100.00
1776;BME280;885;42.626;23.200;2022-09-09T01:23:34;169571.56;;;16.20;100.00
1776;BME280;885;42.626;23.200;2022-09-09T01:26:21;169546.66;;;16.11;100.00
1776;BME280;885;42.626;23.200;2022-09-09T01:28:51;169536.94;;;16.07;100.00
1776;BME280;885;42.626;23.200;2022-09-09T01:31:21;169517.56;;;16.00;100.00
1776;BME280;885;42.626;23.200;2022-09-09T01:33:48;169513.38;;;15.99;100.00
1776;BME280;885;42.626;23.200;2022-09-09T01:36:21;169502.31;;;15.95;100.00
1776;BME280;885;42.626;23.200;2022-09-09T01:38:51;169507.84;;;15.97;100.00
1776;BME280;885;42.626;23.200;2022-09-09T01:41:20;169535.53;;;16.07;100.00
1776;BME280;885;42.626;23.200;2022-09-09T01:43:47;169521.72;;;16.02;100.00
1776;BME280;885;42.626;23.200;2022-09-09T01:46:14;169514.78;;;15.99;100.00
1776;BME280;885;42.626;23.200;2022-09-09T01:48:43;169513.38;;;15.99;100.00
1776;BME280;885;42.626;23.200;2022-09-09T01:51:10;169524.47;;;16.03;100.00
1776;BME280;885;42.626;23.200;2022-09-09T01:53:38;169542.47;;;16.09;100.00
1776;BME280;885;42.626;23.200;2022-09-09T01:56:14;169531.41;;;16.05;100.00
1776;BME280;885;42.626;23.200;2022-09-09T01:58:57;169488.50;;;15.89;100.00
1776;BME280;885;42.626;23.200;2022-09-09T02:01:41;169480.16;;;15.86;100.00
1776;BME280;885;42.626;23.200;2022-09-09T02:04:27;169494.03;;;15.92;100.00
1776;BME280;885;42.626;23.200;2022-09-09T02:06:57;169502.31;;;15.95;100.00
1776;BME280;885;42.626;23.200;2022-09-09T02:09:25;169491.25;;;15.90;100.00
1776;BME280;885;42.626;23.200;2022-09-09T02:12:00;169477.41;;;15.85;100.00
1776;BME280;885;42.626;23.200;2022-09-09T02:14:34;169462.16;;;15.80;100.00
1776;BME280;885;42.626;23.200;2022-09-09T02:17:07;169460.75;;;15.79;100.00
1776;BME280;885;42.626;23.200;2022-09-09T02:19:37;169449.69;;;15.75;100.00
1776;BME280;885;42.626;23.200;2022-09-09T02:22:06;169440.03;;;15.72;100.00
1776;BME280;885;42.626;23.200;2022-09-09T02:24:37;169449.69;;;15.75;100.00
1776;BME280;885;42.626;23.200;2022-09-09T02:27:06;169460.75;;;15.79;100.00
1776;BME280;885;42.626;23.200;2022-09-09T02:29:38;169463.56;;;15.80;100.00
1776;BME280;885;42.626;23.200;2022-09-09T02:32:08;169428.94;;;15.68;100.00
1776;BME280;885;42.626;23.200;2022-09-09T02:34:41;169422.00;;;15.65;100.00
1776;BME280;885;42.626;23.200;2022-09-09T02:37:10;169449.69;;;15.75;100.00
1776;BME280;885;42.626;23.200;2022-09-09T02:39:38;169466.28;;;15.81;100.00
1776;BME280;885;42.626;23.200;2022-09-09T02:42:05;169462.16;;;15.80;100.00
1776;BME280;885;42.626;23.200;2022-09-09T02:44:33;169460.75;;;15.79;100.00
1776;BME280;885;42.626;23.200;2022-09-09T02:47:15;169448.34;;;15.75;100.00
1776;BME280;885;42.626;23.200;2022-09-09T02:49:48;169459.41;;;15.79;100.00
1776;BME280;885;42.626;23.200;2022-09-09T02:52:21;169449.69;;;15.75;100.00
1776;BME280;885;42.626;23.200;2022-09-09T02:54:58;169470.50;;;15.83;100.00
1776;BME280;885;42.626;23.200;2022-09-09T02:57:28;169477.41;;;15.85;100.00
1776;BME280;885;42.626;23.200;2022-09-09T02:59:57;169482.97;;;15.87;100.00
1776;BME280;885;42.626;23.200;2022-09-09T03:02:27;169455.22;;;15.77;100.00
1776;BME280;885;42.626;23.200;2022-09-09T03:04:53;169452.47;;;15.76;100.00
1776;BME280;885;42.626;23.200;2022-09-09T03:07:21;169428.94;;;15.68;100.00
1776;BME280;885;42.626;23.200;2022-09-09T03:09:47;169435.88;;;15.70;100.00
1776;BME280;885;42.626;23.200;2022-09-09T03:12:14;169435.88;;;15.70;100.00
1776;BME280;885;42.626;23.200;2022-09-09T03:14:41;169442.81;;;15.73;100.00
1776;BME280;885;42.626;23.200;2022-09-09T03:17:09;169434.47;;;15.70;100.00
1776;BME280;885;42.626;23.200;2022-09-09T03:19:37;169417.88;;;15.64;100.00
1776;BME280;885;42.626;23.200;2022-09-09T03:22:05;169395.72;;;15.56;100.00
1776;BME280;885;42.626;23.200;2022-09-09T03:24:32;169391.53;;;15.54;100.00
1776;BME280;885;42.626;23.200;2022-09-09T03:26:59;169391.53;;;15.54;100.00
1776;BME280;885;42.626;23.200;2022-09-09T03:29:25;169362.47;;;15.44;100.00
1776;BME280;885;42.626;23.200;2022-09-09T03:31:52;169341.69;;;15.36;100.00
1776;BME280;885;42.626;23.200;2022-09-09T03:34:19;169340.28;;;15.36;100.00
1776;BME280;885;42.626;23.200;2022-09-09T03:36:47;169338.94;;;15.35;100.00
1776;BME280;885;42.626;23.200;2022-09-09T03:39:14;169336.16;;;15.34;100.00
1776;BME280;885;42.626;23.200;2022-09-09T03:41:41;169304.34;;;15.23;100.00
1776;BME280;885;42.626;23.200;2022-09-09T03:44:10;169334.75;;;15.34;100.00
1776;BME280;885;42.626;23.200;2022-09-09T03:46:37;169322.28;;;15.29;100.00
1776;BME280;885;42.626;23.200;2022-09-09T03:49:04;169341.69;;;15.36;100.00
1776;BME280;885;42.626;23.200;2022-09-09T03:51:31;169325.09;;;15.30;100.00
1776;BME280;885;42.626;23.200;2022-09-09T03:54:03;169304.34;;;15.23;100.00
1776;BME280;885;42.626;23.200;2022-09-09T03:56:30;169352.75;;;15.40;100.00
1776;BME280;885;42.626;23.200;2022-09-09T03:58:57;169377.75;;;15.49;100.00
1776;BME280;885;42.626;23.200;2022-09-09T04:01:24;169402.63;;;15.58;100.00
1776;BME280;885;42.626;23.200;2022-09-09T04:03:50;169427.56;;;15.67;100.00
1776;BME280;885;42.626;23.200;2022-09-09T04:06:18;169424.81;;;15.66;100.00
1776;BME280;885;42.626;23.200;2022-09-09T04:08:46;169410.94;;;15.61;100.00
1776;BME280;885;42.626;23.200;2022-09-09T04:11:15;169416.47;;;15.63;100.00
1776;BME280;885;42.626;23.200;2022-09-09T04:13:43;169441.41;;;15.72;100.00
1776;BME280;885;42.626;23.200;2022-09-09T04:16:11;169427.56;;;15.67;100.00
1776;BME280;885;42.626;23.200;2022-09-09T04:18:38;169433.09;;;15.69;100.00
1776;BME280;885;42.626;23.200;2022-09-09T04:21:05;169410.94;;;15.61;100.00
1776;BME280;885;42.626;23.200;2022-09-09T04:23:33;169386.00;;;15.52;100.00
1776;BME280;885;42.626;23.200;2022-09-09T04:26:02;169383.28;;;15.51;100.00
1776;BME280;885;42.626;23.200;2022-09-09T04:28:32;169381.88;;;15.51;100.00
1776;BME280;885;42.626;23.200;2022-09-09T04:31:04;169383.28;;;15.51;100.00
1776;BME280;885;42.626;23.200;2022-09-09T04:33:31;169399.88;;;15.57;100.00
1776;BME280;885;42.626;23.200;2022-09-09T04:35:58;169388.81;;;15.53;100.00
1776;BME280;885;42.626;23.200;2022-09-09T04:38:25;169404.00;;;15.59;100.00
1776;BME280;885;42.626;23.200;2022-09-09T04:40:52;169405.41;;;15.59;100.00
1776;BME280;885;42.626;23.200;2022-09-09T04:43:19;169404.00;;;15.59;100.00
1776;BME280;885;42.626;23.200;2022-09-09T04:45:49;169427.56;;;15.67;100.00
1776;BME280;885;42.626;23.200;2022-09-09T04:48:16;169430.34;;;15.68;100.00
1776;BME280;885;42.626;23.200;2022-09-09T04:50:43;169441.41;;;15.72;100.00
1776;BME280;885;42.626;23.200;2022-09-09T04:53:10;169474.63;;;15.84;100.00
1776;BME280;885;42.626;23.200;2022-09-09T04:55:37;169482.97;;;15.87;100.00
1776;BME280;885;42.626;23.200;2022-09-09T04:58:04;169482.97;;;15.87;100.00
1776;BME280;885;42.626;23.200;2022-09-09T05:00:31;169488.50;;;15.89;100.00
1776;BME280;885;42.626;23.200;2022-09-09T05:03:02;169514.78;;;15.99;100.00
1776;BME280;885;42.626;23.200;2022-09-09T05:05:29;169507.84;;;15.97;100.00
1776;BME280;885;42.626;23.200;2022-09-09T05:08:00;169509.25;;;15.97;100.00
1776;BME280;885;42.626;23.200;2022-09-09T05:10:28;169525.84;;;16.03;100.00
1776;BME280;885;42.626;23.200;2022-09-09T05:12:55;169542.47;;;16.09;100.00
1776;BME280;885;42.626;23.200;2022-09-09T05:15:22;169564.63;;;16.17;100.00
1776;BME280;885;42.626;23.200;2022-09-09T05:17:49;169552.19;;;16.13;100.00
1776;BME280;885;42.626;23.200;2022-09-09T05:20:19;169539.72;;;16.08;100.00
1776;BME280;885;42.626;23.200;2022-09-09T05:22:46;169535.53;;;16.07;100.00
1776;BME280;885;42.626;23.200;2022-09-09T05:25:13;169563.28;;;16.17;100.00
1776;BME280;885;42.626;23.200;2022-09-09T05:27:40;169582.63;;;16.24;100.00
1776;BME280;885;42.626;23.200;2022-09-09T05:30:08;169603.44;;;16.31;100.00
1776;BME280;885;42.626;23.200;2022-09-09T05:32:35;169614.50;;;16.35;100.00
1776;BME280;885;42.626;23.200;2022-09-09T05:35:02;169615.84;;;16.36;100.00
1776;BME280;885;42.626;23.200;2022-09-09T05:37:32;169624.19;;;16.39;100.00
1776;BME280;885;42.626;23.200;2022-09-09T05:39:58;169651.88;;;16.49;100.00
1776;BME280;885;42.626;23.200;2022-09-09T05:42:29;169681.03;;;16.59;100.00
1776;BME280;885;42.626;23.200;2022-09-09T05:44:57;169701.84;;;16.67;100.00
1776;BME280;885;42.626;23.200;2022-09-09T05:47:23;169718.44;;;16.73;100.00
1776;BME280;885;42.626;23.200;2022-09-09T05:49:53;169747.56;;;16.84;100.00
1776;BME280;885;42.626;23.200;2022-09-09T05:52:19;169779.38;;;16.95;100.00
1776;BME280;885;42.626;23.200;2022-09-09T05:54:47;169793.25;;;17.00;100.00
1776;BME280;885;42.626;23.200;2022-09-09T05:57:14;169815.44;;;17.08;100.00
1776;BME280;885;42.626;23.200;2022-09-09T05:59:41;169841.75;;;17.18;100.00
1776;BME280;885;42.626;23.200;2022-09-09T06:02:08;169873.63;;;17.29;100.00
1776;BME280;885;42.626;23.200;2022-09-09T06:04:35;169890.25;;;17.35;100.00
1776;BME280;885;42.626;23.200;2022-09-09T06:07:02;169916.56;;;17.45;100.00
1776;BME280;885;42.626;23.200;2022-09-09T06:09:29;169973.50;;;17.66;100.00
1776;BME280;885;42.626;23.200;2022-09-09T06:11:57;170009.50;;;17.79;100.00
1776;BME280;885;42.626;23.200;2022-09-09T06:14:24;170074.69;;;18.02;100.00
1776;BME280;885;42.626;23.200;2022-09-09T06:16:52;170149.56;;;18.30;100.00
1776;BME280;885;42.626;23.200;2022-09-09T06:19:19;170157.91;;;18.33;100.00
1776;BME280;885;42.626;23.200;2022-09-09T06:21:46;170178.72;;;18.40;100.00
1776;BME280;885;42.626;23.200;2022-09-09T06:24:13;170200.94;;;18.48;100.00
1776;BME280;885;42.626;23.200;2022-09-09T06:26:42;170203.75;;;18.49;100.00
1776;BME280;885;42.626;23.200;2022-09-09T06:29:10;170182.84;;;18.42;100.00
1776;BME280;885;42.626;23.200;2022-09-09T06:31:38;170187.06;;;18.43;100.00
1776;BME280;885;42.626;23.200;2022-09-09T06:34:06;170182.84;;;18.42;100.00
1776;BME280;885;42.626;23.200;2022-09-09T06:36:36;170164.81;;;18.35;100.00
1776;BME280;885;42.626;23.200;2022-09-09T06:39:04;170181.44;;;18.41;100.00
1776;BME280;885;42.626;23.200;2022-09-09T06:41:32;170175.91;;;18.39;100.00
1776;BME280;885;42.626;23.200;2022-09-09T06:43:59;170166.22;;;18.36;100.00
1776;BME280;885;42.626;23.200;2022-09-09T06:46:29;170185.66;;;18.43;100.00
1776;BME280;885;42.626;23.200;2022-09-09T06:48:59;170198.19;;;18.47;100.00
1776;BME280;885;42.626;23.200;2022-09-09T06:51:26;170218.97;;;18.55;100.00
1776;BME280;885;42.626;23.200;2022-09-09T06:53:55;170239.75;;;18.62;100.00
1776;BME280;885;42.626;23.200;2022-09-09T06:56:23;170263.34;;;18.71;100.00
1776;BME280;885;42.626;23.200;2022-09-09T06:58:51;170296.69;;;18.83;100.00
1776;BME280;885;42.626;23.200;2022-09-09T07:01:21;170323.03;;;18.92;100.00
1776;BME280;885;42.626;23.200;2022-09-09T07:03:51;170370.22;;;19.10;100.00
1776;BME280;885;42.626;23.200;2022-09-09T07:06:20;170410.44;;;19.24;100.00
1776;BME280;885;42.626;23.200;2022-09-09T07:08:49;170449.34;;;19.38;100.00
1776;BME280;885;42.626;23.200;2022-09-09T07:11:16;170511.81;;;19.61;100.00
1776;BME280;885;42.626;23.200;2022-09-09T07:13:43;170572.91;;;19.83;100.00
1776;BME280;885;42.626;23.200;2022-09-09T07:16:11;170653.44;;;20.12;100.00
1776;BME280;885;42.626;23.200;2022-09-09T07:18:39;170725.69;;;20.38;98.55
1776;BME280;885;42.626;23.200;2022-09-09T07:21:09;170788.22;;;20.61;100.00
1776;BME280;885;42.626;23.200;2022-09-09T07:23:37;170821.56;;;20.73;92.72
1776;BME280;885;42.626;23.200;2022-09-09T07:26:08;170860.44;;;20.87;97.26
1776;BME280;885;42.626;23.200;2022-09-09T07:28:36;170881.25;;;20.95;97.88
1776;BME280;885;42.626;23.200;2022-09-09T07:31:04;170950.78;;;21.20;98.01
1776;BME280;885;42.626;23.200;2022-09-09T07:33:32;170995.28;;;21.36;96.25
1776;BME280;885;42.626;23.200;2022-09-09T07:36:04;171030.03;;;21.49;93.57
1776;BME280;885;42.626;23.200;2022-09-09T07:38:37;171066.13;;;21.62;90.65
1776;BME280;885;42.626;23.200;2022-09-09T07:41:05;171118.94;;;21.81;88.49
1776;BME280;885;42.626;23.200;2022-09-09T07:43:33;171203.84;;;22.11;89.49
1776;BME280;885;42.626;23.200;2022-09-09T07:46:00;171266.41;;;22.34;87.58
1776;BME280;885;42.626;23.200;2022-09-09T07:48:28;171324.81;;;22.55;83.62
1776;BME280;885;42.626;23.200;2022-09-09T07:51:06;171380.47;;;22.75;83.96
1776;BME280;885;42.626;23.200;2022-09-09T07:53:35;171434.75;;;22.95;78.99
1776;BME280;885;42.626;23.200;2022-09-09T07:56:05;171495.94;;;23.17;80.10
1776;BME280;885;42.626;23.200;2022-09-09T07:58:32;171548.88;;;23.36;78.55
1776;BME280;885;42.626;23.200;2022-09-09T08:00:58;171576.69;;;23.46;78.61
1776;BME280;885;42.626;23.200;2022-09-09T08:03:25;171611.47;;;23.59;79.24
1776;BME280;885;42.626;23.200;2022-09-09T08:05:52;171646.28;;;23.72;78.30
1776;BME280;885;42.626;23.200;2022-09-09T08:08:21;171668.53;;;23.80;76.77
1776;BME280;885;42.626;23.200;2022-09-09T08:10:49;171717.28;;;23.97;77.27
1776;BME280;885;42.626;23.200;2022-09-09T08:13:18;171743.75;;;24.07;75.28
1776;BME280;885;42.626;23.200;2022-09-09T08:15:45;171760.50;;;24.13;74.68
1776;BME280;885;42.626;23.200;2022-09-09T08:18:11;171735.44;;;24.04;75.81
1776;BME280;885;42.626;23.200;2022-09-09T08:20:38;171725.66;;;24.00;75.70
1776;BME280;885;42.626;23.200;2022-09-09T08:23:05;171754.94;;;24.11;75.42
1776;BME280;885;42.626;23.200;2022-09-09T08:25:32;171718.69;;;23.98;73.79
1776;BME280;885;42.626;23.200;2022-09-09T08:28:02;171704.75;;;23.93;75.09
1776;BME280;885;42.626;23.200;2022-09-09T08:30:29;171692.22;;;23.88;75.18
1776;BME280;885;42.626;23.200;2022-09-09T08:32:56;171703.34;;;23.92;75.44
1776;BME280;885;42.626;23.200;2022-09-09T08:35:23;171715.88;;;23.97;76.56
1776;BME280;885;42.626;23.200;2022-09-09T08:37:53;171741.00;;;24.06;76.37
1776;BME280;885;42.626;23.200;2022-09-09T08:40:26;171714.53;;;23.96;74.83
1776;BME280;885;42.626;23.200;2022-09-09T08:42:59;171695.03;;;23.89;78.11
1776;BME280;885;42.626;23.200;2022-09-09T08:45:37;171749.31;;;24.09;78.29
1776;BME280;885;42.626;23.200;2022-09-09T08:48:22;171784.13;;;24.21;76.60
1776;BME280;885;42.626;23.200;2022-09-09T08:50:56;171813.38;;;24.32;75.98
1776;BME280;885;42.626;23.200;2022-09-09T08:53:29;171832.88;;;24.39;75.33
1776;BME280;885;42.626;23.200;2022-09-09T08:56:01;171845.41;;;24.43;75.22
1776;BME280;885;42.626;23.200;2022-09-09T08:58:31;171852.38;;;24.46;76.05
1776;BME280;885;42.626;23.200;2022-09-09T09:01:33;171885.78;;;24.58;75.83
1776;BME280;885;42.626;23.200;2022-09-09T09:04:12;171972.19;;;24.89;74.82
1776;BME280;885;42.626;23.200;2022-09-09T09:06:49;171883.00;;;24.57;73.30
1776;BME280;885;42.626;23.200;2022-09-09T09:09:22;171883.00;;;24.57;73.97
1776;BME280;885;42.626;23.200;2022-09-09T09:11:55;171881.63;;;24.57;72.82
1776;BME280;885;42.626;23.200;2022-09-09T09:14:28;171881.63;;;24.57;73.48
1776;BME280;885;42.626;23.200;2022-09-09T09:17:00;171912.22;;;24.68;73.88
1776;BME280;885;42.626;23.200;2022-09-09T09:19:33;171860.72;;;24.49;74.02
1776;BME280;885;42.626;23.200;2022-09-09T09:22:06;171888.56;;;24.59;74.09
1776;BME280;885;42.626;23.200;2022-09-09T09:24:42;171899.75;;;24.63;73.45
1776;BME280;885;42.626;23.200;2022-09-09T09:27:15;171958.25;;;24.84;73.55
1776;BME280;885;42.626;23.200;2022-09-09T09:29:43;171961.06;;;24.85;73.48
1776;BME280;885;42.626;23.200;2022-09-09T09:32:16;171983.34;;;24.93;73.85
1776;BME280;885;42.626;23.200;2022-09-09T09:34:48;172025.13;;;25.08;73.98
1776;BME280;885;42.626;23.200;2022-09-09T09:37:17;171991.72;;;24.96;71.25
1776;BME280;885;42.626;23.200;2022-09-09T09:39:49;172025.13;;;25.08;72.09
1776;BME280;885;42.626;23.200;2022-09-09T09:42:17;172034.88;;;25.12;73.21
1776;BME280;885;42.626;23.200;2022-09-09T09:44:44;171963.88;;;24.86;73.14
1776;BME280;885;42.626;23.200;2022-09-09T09:47:13;171977.75;;;24.91;73.85
1776;BME280;885;42.626;23.200;2022-09-09T09:49:51;172015.41;;;25.05;72.97
1776;BME280;885;42.626;23.200;2022-09-09T09:52:21;172047.41;;;25.16;73.20
1776;BME280;885;42.626;23.200;2022-09-09T09:54:49;172050.22;;;25.17;73.92
1776;BME280;885;42.626;23.200;2022-09-09T09:57:16;171938.78;;;24.77;72.78
1776;BME280;885;42.626;23.200;2022-09-09T09:59:45;171880.22;;;24.56;73.27
1776;BME280;885;42.626;23.200;2022-09-09T10:02:19;171863.53;;;24.50;74.15
1776;BME280;885;42.626;23.200;2022-09-09T10:04:46;171816.19;;;24.33;74.62
1776;BME280;885;42.626;23.200;2022-09-09T10:07:18;171752.13;;;24.10;75.05
1776;BME280;885;42.626;23.200;2022-09-09T10:09:47;171729.81;;;24.02;76.39
1776;BME280;885;42.626;23.200;2022-09-09T10:12:25;171715.88;;;23.97;77.10
1776;BME280;885;42.626;23.200;2022-09-09T10:15:00;171693.63;;;23.89;77.25
1776;BME280;885;42.626;23.200;2022-09-09T10:17:35;171688.03;;;23.87;77.94
1776;BME280;885;42.626;23.200;2022-09-09T10:20:19;171696.41;;;23.90;78.65
1776;BME280;885;42.626;23.200;2022-09-09T10:22:52;171672.75;;;23.81;79.36
1776;BME280;885;42.626;23.200;2022-09-09T10:25:31;171671.34;;;23.81;80.13
1776;BME280;885;42.626;23.200;2022-09-09T10:28:15;171654.66;;;23.75;78.74
1776;BME280;885;42.626;23.200;2022-09-09T10:30:57;171615.69;;;23.60;79.20
1776;BME280;885;42.626;23.200;2022-09-09T10:33:32;171612.88;;;23.59;79.53
1776;BME280;885;42.626;23.200;2022-09-09T10:36:07;171575.34;;;23.46;79.80
1776;BME280;885;42.626;23.200;2022-09-09T10:38:39;171575.34;;;23.46;80.72
1776;BME280;885;42.626;23.200;2022-09-09T10:41:16;171562.81;;;23.41;80.18
1776;BME280;885;42.626;23.200;2022-09-09T10:46:48;171582.25;;;23.48;82.82
1776;BME280;885;42.626;23.200;2022-09-09T10:49:32;171593.38;;;23.52;83.70
1776;BME280;885;42.626;23.200;2022-09-09T10:52:15;171575.34;;;23.46;82.78
1776;BME280;885;42.626;23.200;2022-09-09T10:54:53;171547.47;;;23.36;84.09
1776;BME280;885;42.626;23.200;2022-09-09T10:57:28;171534.88;;;23.31;82.50
1776;BME280;885;42.626;23.200;2022-09-09T10:59:59;171571.13;;;23.44;83.62
1776;BME280;885;42.626;23.200;2022-09-09T11:02:29;171560.00;;;23.40;82.89
1776;BME280;885;42.626;23.200;2022-09-09T11:05:02;171575.34;;;23.46;83.39
1776;BME280;885;42.626;23.200;2022-09-09T11:07:37;171560.00;;;23.40;81.59
1776;BME280;885;42.626;23.200;2022-09-09T11:10:17;171575.34;;;23.46;82.89
1776;BME280;885;42.626;23.200;2022-09-09T11:12:49;171610.13;;;23.58;81.58
1776;BME280;885;42.626;23.200;2022-09-09T11:15:20;171582.25;;;23.48;82.61
1776;BME280;885;42.626;23.200;2022-09-09T11:17:53;171626.81;;;23.64;82.50
1776;BME280;885;42.626;23.200;2022-09-09T11:20:23;171629.59;;;23.65;82.35
1776;BME280;885;42.626;23.200;2022-09-09T11:22:55;171706.16;;;23.93;81.98
1776;BME280;885;42.626;23.200;2022-09-09T11:25:29;171729.81;;;24.02;80.73
1776;BME280;885;42.626;23.200;2022-09-09T11:28:09;171757.69;;;24.12;80.51
1776;BME280;885;42.626;23.200;2022-09-09T11:30:47;171773.00;;;24.17;80.76
1776;BME280;885;42.626;23.200;2022-09-09T11:33:38;171768.84;;;24.16;81.29
1776;BME280;885;42.626;23.200;2022-09-09T11:36:34;171763.25;;;24.14;81.01
1776;BME280;885;42.626;23.200;2022-09-09T11:42:05;171689.44;;;23.87;84.61
1776;BME280;885;42.626;23.200;2022-09-09T11:44:33;171671.34;;;23.81;81.60
1776;BME280;885;42.626;23.200;2022-09-09T11:47:00;171718.69;;;23.98;83.84
1776;BME280;885;42.626;23.200;2022-09-09T11:49:28;171781.38;;;24.20;82.47
1776;BME280;885;42.626;23.200;2022-09-09T11:51:58;171820.34;;;24.34;80.23
1776;BME280;885;42.626;23.200;2022-09-09T11:54:29;171809.19;;;24.30;79.99
1776;BME280;885;42.626;23.200;2022-09-09T11:56:57;171846.81;;;24.44;80.36
1776;BME280;885;42.626;23.200;2022-09-09T11:59:26;171844.00;;;24.43;79.98
1776;BME280;885;42.626;23.200;2022-09-09T12:01:56;171813.38;;;24.32;79.09
1776;BME280;885;42.626;23.200;2022-09-09T12:04:35;171803.63;;;24.28;80.87
1776;BME280;885;42.626;23.200;2022-09-09T12:07:26;171774.41;;;24.18;80.58
1776;BME280;885;42.626;23.200;2022-09-09T12:09:58;171729.81;;;24.02;79.70
1776;BME280;885;42.626;23.200;2022-09-09T12:12:30;171763.25;;;24.14;80.60
1776;BME280;885;42.626;23.200;2022-09-09T12:15:22;171745.16;;;24.07;77.06
1776;BME280;885;42.626;23.200;2022-09-09T12:17:52;171821.75;;;24.35;78.58
1776;BME280;885;42.626;23.200;2022-09-09T12:20:21;171869.09;;;24.52;78.24
1776;BME280;885;42.626;23.200;2022-09-09T12:23:10;171924.78;;;24.72;77.37
1776;BME280;885;42.626;23.200;2022-09-09T12:25:52;171715.88;;;23.97;76.94
1776;BME280;885;42.626;23.200;2022-09-09T12:28:24;171746.56;;;24.08;78.90
1776;BME280;885;42.626;23.200;2022-09-09T12:30:58;171752.13;;;24.10;77.34
1776;BME280;885;42.626;23.200;2022-09-09T12:33:34;171657.41;;;23.76;77.54
1776;BME280;885;42.626;23.200;2022-09-09T12:36:03;171594.78;;;23.53;78.69
1776;BME280;885;42.626;23.200;2022-09-09T12:38:36;171533.53;;;23.31;78.21
1776;BME280;885;42.626;23.200;2022-09-09T12:41:03;171594.78;;;23.53;79.87
1776;BME280;885;42.626;23.200;2022-09-09T12:43:30;171612.88;;;23.59;80.37
1776;BME280;885;42.626;23.200;2022-09-09T12:46:00;171617.06;;;23.61;81.33
1776;BME280;885;42.626;23.200;2022-09-09T12:48:35;171625.41;;;23.64;80.83
1776;BME280;885;42.626;23.200;2022-09-09T12:51:05;171621.25;;;23.62;79.24
1776;BME280;885;42.626;23.200;2022-09-09T12:53:36;171603.16;;;23.56;80.19
1776;BME280;885;42.626;23.200;2022-09-09T12:56:05;171618.47;;;23.61;81.70
1776;BME280;885;42.626;23.200;2022-09-09T12:58:34;171632.41;;;23.66;82.64
1776;BME280;885;42.626;23.200;2022-09-09T13:01:03;171610.13;;;23.58;83.29
1776;BME280;885;42.626;23.200;2022-09-09T13:03:32;171626.81;;;23.64;82.16
1776;BME280;885;42.626;23.200;2022-09-09T13:06:11;171632.41;;;23.66;85.57
1776;BME280;885;42.626;23.200;2022-09-09T13:08:39;171692.22;;;23.88;82.07
1776;BME280;885;42.626;23.200;2022-09-09T13:11:10;171721.44;;;23.99;81.80
1776;BME280;885;42.626;23.200;2022-09-09T13:13:40;171754.94;;;24.11;80.11
1776;BME280;885;42.626;23.200;2022-09-09T13:16:24;171727.00;;;24.01;79.93
1776;BME280;885;42.626;23.200;2022-09-09T13:18:57;171657.41;;;23.76;80.62
1776;BME280;885;42.626;23.200;2022-09-09T13:21:32;171654.66;;;23.75;79.29
1776;BME280;885;42.626;23.200;2022-09-09T13:24:01;171701.97;;;23.92;81.00
1776;BME280;885;42.626;23.200;2022-09-09T13:26:30;171690.84;;;23.88;79.57
1776;BME280;885;42.626;23.200;2022-09-09T13:29:15;171704.75;;;23.93;79.30
1776;BME280;885;42.626;23.200;2022-09-09T13:31:44;171703.34;;;23.92;80.32
1776;BME280;885;42.626;23.200;2022-09-09T13:34:12;171632.41;;;23.66;81.34